Cantillana, Spain
Current Conditions -  °F | °C
As of 4:30 PM on Thursday 23 Oct 2014 (Local Time) from LEZL Reporting Station
Clear Clear  
Wind Chill: 81°   Ceiling: Unl
Heat Index: 81°   Visibility: 6mi
Dew Point: 41°   Wind: 10mph
Humidity: 24%   Direction: 40°NE
Pressure: 30.09"   Gusts: NA
Location:  37.61°N, 5.82°W
Report Text: LEZL 231430Z 04009KT CAVOK 27/05 Q1019 NOSIG
Loading
Personal Weather Stations






























Interactive Weather Map
Tropical Storm Tracking
New forecast layout! Learn more

10-Day Weather Forecast

Advertisements
Track Severe Weather on mobile